createdAt,value
2018-04-26T00:00:04.423Z,6.625
2018-04-26T00:01:03.473Z,6.687
2018-04-26T00:02:04.160Z,6.687
2018-04-26T00:03:03.607Z,6.5
2018-04-26T00:04:03.907Z,6.437
2018-04-26T00:05:03.389Z,6.375
2018-04-26T00:06:03.600Z,6.375
2018-04-26T00:07:03.962Z,6.187
2018-04-26T00:08:03.597Z,6.312
2018-04-26T00:09:04.167Z,6.375
2018-04-26T00:10:03.913Z,6.375
2018-04-26T00:11:03.361Z,6.375
2018-04-26T00:12:03.893Z,6.25
2018-04-26T00:13:04.024Z,6.25
2018-04-26T00:14:03.312Z,6.125
2018-04-26T00:15:03.785Z,5.875
2018-04-26T00:16:04.084Z,5.812
2018-04-26T00:17:03.771Z,5.812
2018-04-26T00:18:03.560Z,5.812
2018-04-26T00:19:04.200Z,5.75
2018-04-26T00:20:03.822Z,5.75
2018-04-26T00:21:05.369Z,5.687
2018-04-26T00:22:03.305Z,5.625
2018-04-26T00:23:03.601Z,5.625
2018-04-26T00:24:03.918Z,5.5
2018-04-26T00:25:03.484Z,5.5
2018-04-26T00:26:03.779Z,5.5
2018-04-26T00:27:03.380Z,5.5
2018-04-26T00:28:03.905Z,5.5
2018-04-26T00:29:04.224Z,5.437
2018-04-26T00:30:03.673Z,5.5
2018-04-26T00:31:04.009Z,5.437
2018-04-26T00:32:03.953Z,5.375
2018-04-26T00:33:03.367Z,5.375
2018-04-26T00:34:03.643Z,5.25
2018-04-26T00:35:03.898Z,5.25
2018-04-26T00:36:04.138Z,5.125
2018-04-26T00:37:03.488Z,5.062
2018-04-26T00:38:03.920Z,5.125
2018-04-26T00:39:04.032Z,5.125
2018-04-26T00:40:03.777Z,5.062
2018-04-26T00:41:04.140Z,5
2018-04-26T00:42:03.538Z,5.187
2018-04-26T00:43:03.893Z,5.125
2018-04-26T00:44:04.246Z,5.125
2018-04-26T00:45:03.766Z,5.187
2018-04-26T00:46:03.727Z,5.125
2018-04-26T00:47:03.972Z,5.125
2018-04-26T00:48:04.295Z,5.062
2018-04-26T00:49:03.596Z,5.062
2018-04-26T00:50:03.424Z,5.062
2018-04-26T00:51:03.883Z,5.062
2018-04-26T00:52:03.304Z,5.062
2018-04-26T00:53:03.675Z,5
2018-04-26T00:54:04.103Z,5
2018-04-26T00:55:03.583Z,4.937
2018-04-26T00:56:03.976Z,4.812
2018-04-26T00:57:03.737Z,4.812
2018-04-26T00:58:04.106Z,4.812
2018-04-26T00:59:03.446Z,4.687
2018-04-26T01:00:04.083Z,4.687
2018-04-26T01:01:03.485Z,4.625
2018-04-26T01:02:03.787Z,4.562
2018-04-26T01:03:04.036Z,4.562
2018-04-26T01:04:03.501Z,4.625
2018-04-26T01:05:04.021Z,4.625
2018-04-26T01:06:03.475Z,4.5
2018-04-26T01:07:03.742Z,4.625
2018-04-26T01:08:04.037Z,4.562
2018-04-26T01:09:03.818Z,4.562
2018-04-26T01:10:04.268Z,4.5
2018-04-26T01:11:03.646Z,4.5
2018-04-26T01:12:04.073Z,4.5
2018-04-26T01:13:03.995Z,4.5
2018-04-26T01:14:03.391Z,4.437
2018-04-26T01:15:03.999Z,4.437
2018-04-26T01:16:04.145Z,4.5
2018-04-26T01:17:03.567Z,4.375
2018-04-26T01:18:03.978Z,4.375
2018-04-26T01:19:03.452Z,4.375
2018-04-26T01:20:03.740Z,4.437
2018-04-26T01:21:04.228Z,4.375
2018-04-26T01:22:03.806Z,4.375
2018-04-26T01:23:04.034Z,4.312
2018-04-26T01:24:03.365Z,4.312
2018-04-26T01:25:03.815Z,4.25
2018-04-26T01:26:04.234Z,4.187
2018-04-26T01:27:03.606Z,4.25
2018-04-26T01:28:03.811Z,4.312
2018-04-26T01:29:04.240Z,4.375
2018-04-26T01:30:03.626Z,4.375
2018-04-26T01:31:04.166Z,4.437
2018-04-26T01:32:03.412Z,4.375
2018-04-26T01:33:03.714Z,4.312
2018-04-26T01:34:04.069Z,4.312
2018-04-26T01:35:03.409Z,4.312
2018-04-26T01:36:03.750Z,4.187
2018-04-26T01:37:03.985Z,4.25
2018-04-26T01:38:03.532Z,4.125
2018-04-26T01:39:03.703Z,4.187
2018-04-26T01:40:03.507Z,4.125
2018-04-26T01:41:03.809Z,4.125
2018-04-26T01:42:04.168Z,4.062
2018-04-26T01:43:03.309Z,4.062
2018-04-26T01:44:03.654Z,4
2018-04-26T01:45:04.047Z,3.937
2018-04-26T01:46:03.458Z,3.937
2018-04-26T01:47:03.644Z,3.937
2018-04-26T01:48:03.480Z,3.937
2018-04-26T01:49:03.871Z,3.937
2018-04-26T01:50:04.872Z,4
2018-04-26T01:51:04.010Z,3.937
2018-04-26T01:52:03.383Z,4
2018-04-26T01:53:03.744Z,4
2018-04-26T01:54:04.047Z,3.937
2018-04-26T01:55:03.514Z,3.937
2018-04-26T01:56:03.769Z,3.875
2018-04-26T01:57:04.134Z,3.875
2018-04-26T01:58:03.395Z,3.875
2018-04-26T01:59:03.663Z,3.875
2018-04-26T02:00:04.006Z,3.812
2018-04-26T02:01:03.591Z,3.812
2018-04-26T02:02:03.990Z,3.75
2018-04-26T02:03:04.091Z,3.75
2018-04-26T02:04:03.297Z,3.812
2018-04-26T02:05:03.495Z,3.812
2018-04-26T02:06:03.908Z,3.75
2018-04-26T02:07:04.115Z,3.75
2018-04-26T02:08:03.485Z,3.812
2018-04-26T02:09:03.980Z,3.75
2018-04-26T02:10:03.673Z,3.75
2018-04-26T02:11:03.775Z,3.687
2018-04-26T02:12:04.146Z,3.687
2018-04-26T02:13:03.561Z,3.625
2018-04-26T02:14:03.766Z,3.625
2018-04-26T02:15:04.172Z,3.625
2018-04-26T02:16:05.114Z,3.562
2018-04-26T02:17:04.179Z,3.5
2018-04-26T02:18:03.385Z,3.5
2018-04-26T02:19:03.741Z,3.625
2018-04-26T02:20:03.929Z,3.625
2018-04-26T02:21:04.004Z,3.687
2018-04-26T02:22:04.241Z,3.687
2018-04-26T02:23:03.686Z,3.812
2018-04-26T02:24:04.030Z,3.937
2018-04-26T02:25:03.995Z,4
2018-04-26T02:26:03.300Z,4.125
2018-04-26T02:27:03.653Z,4.187
2018-04-26T02:28:03.888Z,4.312
2018-04-26T02:29:04.079Z,4.375
2018-04-26T02:30:04.388Z,4.437
2018-04-26T02:31:03.537Z,4.5
2018-04-26T02:32:03.957Z,4.5
2018-04-26T02:33:04.030Z,4.562
2018-04-26T02:34:03.331Z,4.5
2018-04-26T02:35:03.746Z,4.562
2018-04-26T02:36:04.067Z,4.562
2018-04-26T02:37:03.622Z,4.5
2018-04-26T02:38:04.105Z,4.5
2018-04-26T02:39:03.635Z,4.5
2018-04-26T02:40:03.324Z,4.5
2018-04-26T02:41:05.016Z,4.375
2018-04-26T02:42:03.674Z,4.375
2018-04-26T02:43:03.948Z,4.312
2018-04-26T02:44:03.865Z,4.375
2018-04-26T02:45:04.155Z,4.375
2018-04-26T02:46:03.590Z,4.375
2018-04-26T02:47:03.853Z,4.312
2018-04-26T02:48:04.182Z,4.25
2018-04-26T02:49:03.287Z,4.25
2018-04-26T02:50:03.560Z,4.187
2018-04-26T02:51:03.784Z,4.187
2018-04-26T02:52:04.102Z,4.187
2018-04-26T02:53:03.348Z,4.187
2018-04-26T02:54:03.570Z,4.187
2018-04-26T02:55:03.860Z,4.187
2018-04-26T02:56:04.089Z,4.187
2018-04-26T02:57:03.880Z,4.187
2018-04-26T02:58:03.403Z,4.25
2018-04-26T02:59:03.790Z,4.25
2018-04-26T03:00:04.105Z,4.25
2018-04-26T03:01:03.535Z,4.25
2018-04-26T03:02:03.826Z,4.25
2018-04-26T03:03:04.060Z,4.25
2018-04-26T03:04:03.332Z,4.25
2018-04-26T03:05:03.663Z,4.25
2018-04-26T03:06:03.865Z,4.312
2018-04-26T03:07:04.155Z,4.25
2018-04-26T03:08:03.498Z,4.25
2018-04-26T03:09:04.031Z,4.125
2018-04-26T03:10:03.603Z,4.125
2018-04-26T03:11:03.853Z,4.062
2018-04-26T03:12:04.155Z,4.062
2018-04-26T03:13:03.610Z,4
2018-04-26T03:14:04.095Z,4
2018-04-26T03:15:03.803Z,3.937
2018-04-26T03:16:04.017Z,3.875
2018-04-26T03:17:03.589Z,3.875
2018-04-26T03:18:03.867Z,3.812
2018-04-26T03:19:04.166Z,3.75
2018-04-26T03:20:03.539Z,3.687
2018-04-26T03:21:03.891Z,3.687
2018-04-26T03:22:04.077Z,3.687
2018-04-26T03:23:03.832Z,3.687
2018-04-26T03:24:04.059Z,3.625
2018-04-26T03:25:03.245Z,3.562
2018-04-26T03:26:04.105Z,3.5
2018-04-26T03:27:03.436Z,3.437
2018-04-26T03:28:04.218Z,3.375
2018-04-26T03:29:03.475Z,3.375
2018-04-26T03:30:04.166Z,3.312
2018-04-26T03:31:03.458Z,3.25
2018-04-26T03:32:03.675Z,3.25
2018-04-26T03:33:03.836Z,3.25
2018-04-26T03:34:03.947Z,3.25
2018-04-26T03:35:03.294Z,3.187
2018-04-26T03:36:03.900Z,3.187
2018-04-26T03:37:04.103Z,3.187
2018-04-26T03:38:03.406Z,3.25
2018-04-26T03:39:04.703Z,3.312
2018-04-26T03:40:05.219Z,3.312
2018-04-26T03:41:03.373Z,3.312
2018-04-26T03:42:03.893Z,3.437
2018-04-26T03:43:04.030Z,3.5
2018-04-26T03:44:03.372Z,3.5
2018-04-26T03:45:04.273Z,3.5
2018-04-26T03:46:03.708Z,3.5
2018-04-26T03:47:03.956Z,3.625
2018-04-26T03:48:04.202Z,3.687
2018-04-26T03:49:03.365Z,3.687
2018-04-26T03:50:03.784Z,3.75
2018-04-26T03:51:04.092Z,3.812
2018-04-26T03:52:03.423Z,3.812
2018-04-26T03:53:03.546Z,3.812
2018-04-26T03:54:03.688Z,3.875
2018-04-26T03:55:03.882Z,3.937
2018-04-26T03:56:03.270Z,4.062
2018-04-26T03:57:03.995Z,4.187
2018-04-26T03:58:03.300Z,4.312
2018-04-26T03:59:04.326Z,4.375
2018-04-26T04:00:03.422Z,4.562
2018-04-26T04:01:03.984Z,4.687
2018-04-26T04:02:04.988Z,4.812
2018-04-26T04:03:04.001Z,4.937
2018-04-26T04:04:04.152Z,5
2018-04-26T04:05:03.447Z,5.187
2018-04-26T04:06:03.731Z,5.25
2018-04-26T04:07:03.816Z,5.312
2018-04-26T04:08:04.096Z,5.375
2018-04-26T04:09:03.310Z,5.437
2018-04-26T04:10:04.130Z,5.562
2018-04-26T04:11:03.707Z,5.75
2018-04-26T04:12:04.031Z,5.937
2018-04-26T04:13:03.197Z,6.062
2018-04-26T04:14:03.335Z,6.25
2018-04-26T04:15:03.552Z,6.375
2018-04-26T04:16:03.805Z,6.437
2018-04-26T04:17:04.208Z,6.562
2018-04-26T04:18:03.789Z,6.562
2018-04-26T04:19:04.207Z,6.437
2018-04-26T04:20:03.685Z,6.375
2018-04-26T04:21:03.881Z,6.25
2018-04-26T04:22:03.275Z,6.187
2018-04-26T04:23:03.584Z,6.187
2018-04-26T04:24:05.069Z,6.187
2018-04-26T04:25:03.833Z,6.125
2018-04-26T04:26:03.318Z,6.125
2018-04-26T04:27:03.586Z,6.125
2018-04-26T04:28:03.752Z,6.062
2018-04-26T04:29:03.627Z,6.062
2018-04-26T04:30:04.397Z,6.125
2018-04-26T04:31:03.638Z,6.187
2018-04-26T04:32:03.941Z,6.187
2018-04-26T04:33:04.212Z,6.25
2018-04-26T04:34:03.542Z,6.312
2018-04-26T04:35:03.797Z,6.375
2018-04-26T04:36:04.122Z,6.437
2018-04-26T04:37:03.448Z,6.5
2018-04-26T04:38:03.666Z,6.562
2018-04-26T04:39:04.210Z,6.625
2018-04-26T04:40:03.984Z,6.625
2018-04-26T04:41:03.413Z,6.687
2018-04-26T04:42:03.814Z,6.687
2018-04-26T04:43:04.196Z,6.812
2018-04-26T04:44:03.542Z,6.812
2018-04-26T04:45:03.895Z,6.875
2018-04-26T04:46:04.108Z,6.937
2018-04-26T04:47:03.322Z,6.937
2018-04-26T04:48:03.752Z,6.937
2018-04-26T04:49:04.090Z,6.937
2018-04-26T04:50:03.891Z,6.937
2018-04-26T04:51:03.995Z,6.937
2018-04-26T04:52:04.016Z,6.937
2018-04-26T04:53:04.111Z,6.875
2018-04-26T04:54:03.315Z,6.937
2018-04-26T04:55:03.724Z,6.875
2018-04-26T04:56:03.419Z,6.812
2018-04-26T04:57:03.619Z,6.75
2018-04-26T04:58:03.836Z,6.75
2018-04-26T04:59:04.138Z,6.75
2018-04-26T05:00:03.734Z,6.75
2018-04-26T05:01:04.039Z,6.75
2018-04-26T05:02:03.224Z,6.75
2018-04-26T05:03:03.518Z,6.75
2018-04-26T05:04:03.641Z,6.687
2018-04-26T05:05:03.967Z,6.687
2018-04-26T05:06:03.270Z,6.687
2018-04-26T05:07:03.496Z,6.687
2018-04-26T05:08:03.651Z,6.687
2018-04-26T05:09:04.211Z,6.687
2018-04-26T05:10:04.424Z,6.625
2018-04-26T05:11:03.620Z,6.625
2018-04-26T05:12:03.937Z,6.687
2018-04-26T05:13:03.251Z,6.812
2018-04-26T05:14:03.494Z,6.812
2018-04-26T05:15:03.993Z,6.812
2018-04-26T05:16:03.184Z,6.812
2018-04-26T05:17:03.444Z,6.812
2018-04-26T05:18:04.288Z,6.812
2018-04-26T05:19:03.594Z,6.937
2018-04-26T05:20:03.973Z,7
2018-04-26T05:21:03.402Z,7
2018-04-26T05:22:03.934Z,7
2018-04-26T05:23:03.475Z,7.062
2018-04-26T05:24:03.688Z,7.187
2018-04-26T05:25:03.907Z,7.25
2018-04-26T05:26:03.967Z,7.375
2018-04-26T05:27:03.458Z,7.437
2018-04-26T05:28:03.779Z,7.5
2018-04-26T05:29:04.041Z,7.5
2018-04-26T05:30:03.479Z,7.562
2018-04-26T05:31:03.738Z,7.625
2018-04-26T05:32:03.938Z,7.625
2018-04-26T05:33:04.258Z,7.625
2018-04-26T05:34:03.540Z,7.687
2018-04-26T05:35:03.750Z,7.687
2018-04-26T05:36:03.869Z,7.812
2018-04-26T05:37:04.092Z,7.812
2018-04-26T05:38:03.366Z,7.875
2018-04-26T05:39:03.663Z,7.875
2018-04-26T05:40:04.361Z,7.875
2018-04-26T05:41:03.438Z,7.937
2018-04-26T05:42:03.635Z,7.937
2018-04-26T05:43:03.986Z,7.937
2018-04-26T05:44:04.044Z,8
2018-04-26T05:45:03.562Z,8
2018-04-26T05:46:03.774Z,7.937
2018-04-26T05:47:04.070Z,7.937
2018-04-26T05:48:03.241Z,7.875
2018-04-26T05:49:03.518Z,8
2018-04-26T05:50:03.758Z,7.937
2018-04-26T05:51:03.967Z,8
2018-04-26T05:52:03.363Z,8
2018-04-26T05:53:03.643Z,8
2018-04-26T05:54:03.923Z,8
2018-04-26T05:55:03.316Z,8.062
2018-04-26T05:56:03.650Z,8.062
2018-04-26T05:57:03.961Z,8.062
2018-04-26T05:58:03.372Z,8.062
2018-04-26T05:59:03.683Z,8.062
2018-04-26T06:00:04.061Z,8.125
2018-04-26T06:01:03.393Z,8.125
2018-04-26T06:02:03.687Z,8.187
2018-04-26T06:03:03.905Z,8.187
2018-04-26T06:04:03.268Z,8.187
2018-04-26T06:05:05.153Z,8.25
2018-04-26T06:06:04.007Z,8.312
2018-04-26T06:07:04.100Z,8.312
2018-04-26T06:08:04.039Z,8.312
2018-04-26T06:09:03.842Z,8.375
2018-04-26T06:10:03.435Z,8.5
2018-04-26T06:11:03.648Z,8.562
2018-04-26T06:12:03.929Z,8.687
2018-04-26T06:13:04.126Z,8.812
2018-04-26T06:14:03.579Z,8.875
2018-04-26T06:15:04.762Z,8.937
2018-04-26T06:16:03.828Z,9.062
2018-04-26T06:17:04.289Z,9.187
2018-04-26T06:18:03.563Z,9.25
2018-04-26T06:19:03.826Z,9.312
2018-04-26T06:20:04.226Z,9.375
2018-04-26T06:21:03.430Z,9.375
2018-04-26T06:22:04.037Z,9.375
2018-04-26T06:23:04.205Z,9.375
2018-04-26T06:24:04.059Z,9.312
2018-04-26T06:25:03.376Z,9.25
2018-04-26T06:26:03.818Z,9.25
2018-04-26T06:27:04.862Z,9.312
2018-04-26T06:28:03.808Z,9.25
2018-04-26T06:29:04.118Z,9.312
2018-04-26T06:30:03.446Z,9.25
2018-04-26T06:31:03.863Z,9.25
2018-04-26T06:32:04.093Z,9.25
2018-04-26T06:33:03.841Z,9.125
2018-04-26T06:34:03.883Z,9.125
2018-04-26T06:35:03.450Z,9.062
2018-04-26T06:36:03.666Z,9.062
2018-04-26T06:37:03.853Z,9
2018-04-26T06:38:04.107Z,8.875
2018-04-26T06:39:03.758Z,8.812
2018-04-26T06:40:04.256Z,8.687
2018-04-26T06:41:04.114Z,8.562
2018-04-26T06:42:03.420Z,8.562
2018-04-26T06:43:03.617Z,8.562
2018-04-26T06:44:03.885Z,8.562
2018-04-26T06:45:03.647Z,8.562
2018-04-26T06:46:03.641Z,8.562
2018-04-26T06:47:03.900Z,8.437
2018-04-26T06:48:04.200Z,8.375
2018-04-26T06:49:03.525Z,8.437
2018-04-26T06:50:03.741Z,8.5
2018-04-26T06:51:03.991Z,8.5
2018-04-26T06:52:03.216Z,8.437
2018-04-26T06:53:03.985Z,8.375
2018-04-26T06:54:03.375Z,8.312
2018-04-26T06:55:03.699Z,8.312
2018-04-26T06:56:04.036Z,8.312
2018-04-26T06:57:03.279Z,8.312
2018-04-26T06:58:03.485Z,8.25
2018-04-26T06:59:03.623Z,8.437
2018-04-26T07:00:05.197Z,8.625
2018-04-26T07:01:03.228Z,8.875
2018-04-26T07:02:03.638Z,9.25
2018-04-26T07:03:04.016Z,9.562
2018-04-26T07:04:03.310Z,9.812
2018-04-26T07:05:03.683Z,10.062
2018-04-26T07:06:04.052Z,10.187
2018-04-26T07:07:03.183Z,10
2018-04-26T07:08:04.199Z,9.937
2018-04-26T07:09:03.411Z,10
2018-04-26T07:10:03.794Z,10
2018-04-26T07:11:04.075Z,10.187
2018-04-26T07:12:03.500Z,10.812
2018-04-26T07:13:04.659Z,11.25
2018-04-26T07:14:03.724Z,11.75
2018-04-26T07:15:03.997Z,11.812
2018-04-26T07:16:03.234Z,11.625
2018-04-26T07:17:04.769Z,12.25
2018-04-26T07:18:04.128Z,12.937
2018-04-26T07:19:03.592Z,13.687
2018-04-26T07:20:03.916Z,14.125
2018-04-26T07:21:04.228Z,14.687
2018-04-26T07:22:03.208Z,15.25
2018-04-26T07:23:03.623Z,15.312
2018-04-26T07:24:04.012Z,14.937
2018-04-26T07:25:03.229Z,15.125
2018-04-26T07:26:04.007Z,14.75
2018-04-26T07:27:03.597Z,13.625
2018-04-26T07:28:04.066Z,13.375
2018-04-26T07:29:04.183Z,13.5
2018-04-26T07:30:04.544Z,14.437
2018-04-26T07:31:04.251Z,15.125
2018-04-26T07:32:03.660Z,14.75
2018-04-26T07:33:04.135Z,14.75
2018-04-26T07:34:04.015Z,15.187
2018-04-26T07:35:03.356Z,15.25
2018-04-26T07:36:03.605Z,15.812
2018-04-26T07:37:03.819Z,16.25
2018-04-26T07:38:04.025Z,16.75
2018-04-26T07:39:03.973Z,17.687
2018-04-26T07:40:03.728Z,18.5
2018-04-26T07:41:04.009Z,18.812
2018-04-26T07:42:03.366Z,18.25
2018-04-26T07:43:03.915Z,17.937
2018-04-26T07:44:03.312Z,17.875
2018-04-26T07:45:03.881Z,17.625
2018-04-26T07:46:04.564Z,17.25
2018-04-26T07:47:03.578Z,17.437
2018-04-26T07:48:03.791Z,17.562
2018-04-26T07:49:03.439Z,17.25
2018-04-26T07:50:04.216Z,16.937
2018-04-26T07:51:03.697Z,17
2018-04-26T07:52:03.920Z,16.937
2018-04-26T07:53:04.032Z,16.812
2018-04-26T07:54:03.247Z,17
2018-04-26T07:55:03.482Z,17.562
2018-04-26T07:56:03.739Z,18.437
2018-04-26T07:57:03.865Z,19.25
2018-04-26T07:58:04.146Z,19.687
2018-04-26T07:59:03.635Z,19.625
2018-04-26T08:00:04.219Z,19.75
2018-04-26T08:01:04.278Z,20.187
2018-04-26T08:02:03.487Z,20.25
2018-04-26T08:03:03.781Z,20.437
2018-04-26T08:04:04.018Z,19.75
2018-04-26T08:05:03.425Z,19.937
2018-04-26T08:06:03.750Z,19.187
2018-04-26T08:07:04.080Z,18.937
2018-04-26T08:08:03.323Z,18.125
2018-04-26T08:09:03.990Z,17.687
2018-04-26T08:10:04.087Z,17.187
2018-04-26T08:11:03.967Z,17
2018-04-26T08:12:04.149Z,16.937
2018-04-26T08:13:03.463Z,16.5
2018-04-26T08:14:03.697Z,16.5
2018-04-26T08:15:04.008Z,16.562
2018-04-26T08:16:03.291Z,16.562
2018-04-26T08:17:03.761Z,16.437
2018-04-26T08:18:03.943Z,16.437
2018-04-26T08:19:04.185Z,16.875
2018-04-26T08:20:03.664Z,17
2018-04-26T08:21:04.100Z,17.5
2018-04-26T08:22:04.011Z,18
2018-04-26T08:23:04.215Z,18.125
2018-04-26T08:24:03.264Z,18.25
2018-04-26T08:25:03.714Z,18.75
2018-04-26T08:26:04.034Z,18.25
2018-04-26T08:27:03.511Z,18.25
2018-04-26T08:28:04.078Z,17.187
2018-04-26T08:29:03.473Z,17.562
2018-04-26T08:30:04.359Z,17.5
2018-04-26T08:31:03.751Z,17
2018-04-26T08:32:04.186Z,16.812
2018-04-26T08:33:03.274Z,16.812
2018-04-26T08:34:03.585Z,16.937
2018-04-26T08:35:03.968Z,16.5
2018-04-26T08:36:04.228Z,16.312
2018-04-26T08:37:03.511Z,16
2018-04-26T08:38:03.418Z,15.437
2018-04-26T08:39:03.801Z,15.187
2018-04-26T08:40:04.108Z,14.812
2018-04-26T08:41:03.864Z,14.625
2018-04-26T08:42:04.400Z,14.5
2018-04-26T08:43:03.836Z,14.375
2018-04-26T08:44:03.814Z,14.437
2018-04-26T08:45:04.247Z,14.625
2018-04-26T08:46:03.453Z,14.687
2018-04-26T08:47:03.898Z,14.562
2018-04-26T08:48:04.340Z,14.312
2018-04-26T08:49:03.726Z,13.875
2018-04-26T08:50:04.126Z,12.75
2018-04-26T08:51:04.110Z,12.562
2018-04-26T08:52:03.453Z,11.687
2018-04-26T08:53:03.593Z,11.625
2018-04-26T08:54:03.696Z,11.687
2018-04-26T08:55:04.002Z,11.5
2018-04-26T08:56:03.994Z,11.375
2018-04-26T08:57:03.195Z,11.25
2018-04-26T08:58:03.581Z,11.375
2018-04-26T08:59:03.602Z,11.25
2018-04-26T09:00:04.029Z,11.062
2018-04-26T09:01:04.496Z,10.875
2018-04-26T09:02:03.575Z,10.75
2018-04-26T09:03:03.653Z,10.625
2018-04-26T09:04:03.866Z,9.875
2018-04-26T09:05:04.206Z,9.812
2018-04-26T09:06:03.494Z,9.687
2018-04-26T09:07:03.624Z,9.437
2018-04-26T09:08:04.047Z,9.625
2018-04-26T09:09:03.470Z,9.5
2018-04-26T09:10:04.075Z,9.312
2018-04-26T09:11:03.191Z,9.25
2018-04-26T09:12:03.446Z,9.375
2018-04-26T09:13:03.630Z,9.437
2018-04-26T09:14:04.214Z,9.5
2018-04-26T09:15:03.847Z,9.562
2018-04-26T09:16:03.915Z,9.75
2018-04-26T09:17:04.252Z,9.687
2018-04-26T09:18:03.476Z,9.625
2018-04-26T09:19:03.704Z,9.562
2018-04-26T09:20:04.481Z,9.625
2018-04-26T09:21:03.578Z,9.812
2018-04-26T09:22:04.048Z,9.937
2018-04-26T09:23:03.315Z,10
2018-04-26T09:24:03.552Z,10.312
2018-04-26T09:25:03.915Z,10.687
2018-04-26T09:26:03.457Z,11.125
2018-04-26T09:27:03.904Z,11.062
2018-04-26T09:28:04.173Z,11.562
2018-04-26T09:29:03.526Z,12.25
2018-04-26T09:30:03.970Z,12.562
2018-04-26T09:31:03.634Z,12
2018-04-26T09:32:03.786Z,11.75
2018-04-26T09:33:03.773Z,11.437
2018-04-26T09:34:08.931Z,11.5
2018-04-26T09:35:03.815Z,11.5
2018-04-26T09:36:04.173Z,11.187
2018-04-26T09:37:03.401Z,10.937
2018-04-26T09:38:03.853Z,10.75
2018-04-26T09:39:04.093Z,10.937
2018-04-26T09:40:03.622Z,11.125
2018-04-26T09:41:03.823Z,11.187
2018-04-26T09:42:03.985Z,10.687
2018-04-26T09:43:03.375Z,10.5
2018-04-26T09:44:03.584Z,10.5
2018-04-26T09:45:03.849Z,10.75
2018-04-26T09:46:03.480Z,11.25
2018-04-26T09:47:03.782Z,12.187
2018-04-26T09:48:04.091Z,12.562
2018-04-26T09:49:03.634Z,12.875
2018-04-26T09:50:03.995Z,13.062
2018-04-26T09:51:04.283Z,12.75
2018-04-26T09:52:03.734Z,12.875
2018-04-26T09:53:04.097Z,13.437
2018-04-26T09:54:03.422Z,14.25
2018-04-26T09:55:03.569Z,14.187
2018-04-26T09:56:03.753Z,14.375
2018-04-26T09:57:03.887Z,13.875
2018-04-26T09:58:04.093Z,13.812
2018-04-26T09:59:04.665Z,13.687
2018-04-26T10:00:04.226Z,14
2018-04-26T10:01:03.440Z,14.5
2018-04-26T10:02:03.705Z,14.187
2018-04-26T10:03:03.993Z,14.437
2018-04-26T10:04:03.589Z,15.25
2018-04-26T10:05:03.819Z,16.125
2018-04-26T10:06:04.030Z,15.5
2018-04-26T10:07:03.446Z,15.75
2018-04-26T10:08:03.549Z,16.125
2018-04-26T10:09:04.071Z,15.875
2018-04-26T10:10:04.160Z,15.625
2018-04-26T10:11:03.521Z,15.687
2018-04-26T10:12:03.790Z,15.5
2018-04-26T10:13:04.096Z,15.375
2018-04-26T10:14:03.357Z,15.625
2018-04-26T10:15:03.952Z,15.75
2018-04-26T10:16:03.824Z,15.375
2018-04-26T10:17:04.346Z,14.875
2018-04-26T10:18:03.610Z,14.875
2018-04-26T10:19:03.914Z,15
2018-04-26T10:20:04.261Z,15.25
2018-04-26T10:21:03.607Z,15.375
2018-04-26T10:22:03.906Z,15.312
2018-04-26T10:23:04.064Z,15.437
2018-04-26T10:24:03.341Z,15.625
2018-04-26T10:25:03.661Z,15.562
2018-04-26T10:26:04.026Z,15.187
2018-04-26T10:27:03.592Z,15.25
2018-04-26T10:28:03.851Z,15.562
2018-04-26T10:29:03.311Z,16.187
2018-04-26T10:30:03.767Z,15.937
2018-04-26T10:31:04.110Z,14.687
2018-04-26T10:32:04.235Z,14.375
2018-04-26T10:33:03.394Z,14.5
2018-04-26T10:34:03.648Z,15.437
2018-04-26T10:35:03.881Z,16.312
2018-04-26T10:36:04.073Z,16.812
2018-04-26T10:37:03.493Z,16.562
2018-04-26T10:38:03.531Z,16.125
2018-04-26T10:39:04.081Z,15.5
2018-04-26T10:40:03.688Z,15
2018-04-26T10:41:04.077Z,14.875
2018-04-26T10:42:04.447Z,14.5
2018-04-26T10:43:04.131Z,13.937
2018-04-26T10:44:03.627Z,13.75
2018-04-26T10:45:04.336Z,14
2018-04-26T10:46:03.703Z,14.25
2018-04-26T10:47:03.936Z,14.125
2018-04-26T10:48:03.346Z,14.125
2018-04-26T10:49:03.825Z,13.937
2018-04-26T10:50:04.013Z,13.937
2018-04-26T10:51:03.248Z,13.437
2018-04-26T10:52:03.539Z,13.375
2018-04-26T10:53:03.858Z,13.375
2018-04-26T10:54:03.792Z,13.375
2018-04-26T10:55:04.143Z,13.687
2018-04-26T10:56:03.460Z,14
2018-04-26T10:57:03.624Z,14.312
2018-04-26T10:58:04.180Z,14.437
2018-04-26T10:59:03.247Z,14.312
2018-04-26T11:00:03.598Z,14.437
2018-04-26T11:01:04.194Z,14.125
2018-04-26T11:02:03.672Z,14.312
2018-04-26T11:03:03.833Z,14.687
2018-04-26T11:04:04.010Z,14.875
2018-04-26T11:05:03.560Z,14.75
2018-04-26T11:06:03.794Z,14.875
2018-04-26T11:07:04.146Z,15.187
2018-04-26T11:08:04.149Z,15.312
2018-04-26T11:09:03.499Z,15.437
2018-04-26T11:10:03.794Z,15.562
2018-04-26T11:11:04.034Z,15.687
2018-04-26T11:12:04.322Z,15.687
2018-04-26T11:13:03.643Z,15.812
2018-04-26T11:14:03.896Z,16.312
2018-04-26T11:15:04.136Z,16.25
2018-04-26T11:16:03.400Z,16.187
2018-04-26T11:17:03.757Z,16
2018-04-26T11:18:04.207Z,16.062
2018-04-26T11:19:03.449Z,15.312
2018-04-26T11:20:03.745Z,15.75
2018-04-26T11:21:03.391Z,16.312
2018-04-26T11:22:03.602Z,16.625
2018-04-26T11:23:04.786Z,16.5
2018-04-26T11:24:03.890Z,16.25
2018-04-26T11:25:03.481Z,16.125
2018-04-26T11:26:03.840Z,16.375
2018-04-26T11:27:04.068Z,16.812
2018-04-26T11:28:03.382Z,17.5
2018-04-26T11:29:03.659Z,17.937
2018-04-26T11:30:03.913Z,18.187
2018-04-26T11:31:03.389Z,18.437
2018-04-26T11:32:03.695Z,17.687
2018-04-26T11:33:03.521Z,17.062
2018-04-26T11:34:03.573Z,16.312
2018-04-26T11:35:03.842Z,16
2018-04-26T11:36:04.090Z,16.187
2018-04-26T11:37:03.193Z,16.437
2018-04-26T11:38:04.261Z,16.687
2018-04-26T11:39:03.473Z,16.937
2018-04-26T11:40:03.796Z,17.125
2018-04-26T11:41:03.969Z,16.5
2018-04-26T11:42:03.335Z,16.687
2018-04-26T11:43:03.557Z,17.125
2018-04-26T11:44:03.802Z,16.875
2018-04-26T11:45:04.201Z,16.812
2018-04-26T11:46:04.145Z,17.437
2018-04-26T11:47:03.356Z,17.687
2018-04-26T11:48:03.568Z,18.125
2018-04-26T11:49:03.803Z,19.062
2018-04-26T11:50:03.983Z,19.125
2018-04-26T11:51:04.193Z,19.187
2018-04-26T11:52:03.348Z,19.125
2018-04-26T11:53:03.469Z,18.875
2018-04-26T11:54:03.835Z,18.312
2018-04-26T11:55:03.979Z,18.5
2018-04-26T11:56:03.212Z,19.375
2018-04-26T11:57:03.476Z,19.437
2018-04-26T11:58:03.632Z,19.5
2018-04-26T11:59:03.788Z,19.562
2018-04-26T12:00:04.233Z,18.562
2018-04-26T12:01:03.516Z,18.437
2018-04-26T12:02:03.779Z,18.625
2018-04-26T12:03:04.032Z,18.437
2018-04-26T12:04:03.376Z,18.25
2018-04-26T12:05:03.706Z,18.937
2018-04-26T12:06:04.082Z,18.937
2018-04-26T12:07:03.250Z,19.5
2018-04-26T12:08:03.431Z,20.062
2018-04-26T12:09:03.896Z,20.562
2018-04-26T12:10:03.594Z,19.937
2018-04-26T12:11:03.870Z,20
2018-04-26T12:12:03.236Z,19.812
2018-04-26T12:13:03.431Z,20.25
2018-04-26T12:14:03.451Z,20.312
2018-04-26T12:15:04.749Z,20.187
2018-04-26T12:16:03.814Z,20.625
2018-04-26T12:17:04.177Z,20.625
2018-04-26T12:18:03.359Z,20.437
2018-04-26T12:19:03.533Z,19.75
2018-04-26T12:20:03.794Z,18.687
2018-04-26T12:21:04.119Z,17.812
2018-04-26T12:22:03.333Z,17.562
2018-04-26T12:23:03.645Z,17.312
2018-04-26T12:24:04.179Z,17.187
2018-04-26T12:25:03.332Z,16.937
2018-04-26T12:26:03.516Z,16.937
2018-04-26T12:27:03.770Z,16.625
2018-04-26T12:28:04.075Z,16.562
2018-04-26T12:29:03.327Z,15.75
2018-04-26T12:30:03.718Z,15.125
2018-04-26T12:31:03.493Z,13.812
2018-04-26T12:32:03.730Z,13.375
2018-04-26T12:33:03.919Z,13.25
2018-04-26T12:34:04.176Z,13.25
2018-04-26T12:35:04.082Z,13.375
2018-04-26T12:36:03.441Z,13.375
2018-04-26T12:37:03.883Z,13.687
2018-04-26T12:38:04.043Z,13.562
2018-04-26T12:39:04.344Z,13.812
2018-04-26T12:40:03.843Z,14.25
2018-04-26T12:41:04.058Z,14.812
2018-04-26T12:42:03.402Z,15.062
2018-04-26T12:43:03.625Z,15.187
2018-04-26T12:44:03.742Z,15.562
2018-04-26T12:45:04.171Z,15.812
2018-04-26T12:46:03.358Z,16.312
2018-04-26T12:47:03.666Z,16.562
2018-04-26T12:48:03.967Z,16.375
2018-04-26T12:49:03.318Z,15.937
2018-04-26T12:50:03.690Z,15.75
2018-04-26T12:51:04.121Z,15.312
2018-04-26T12:52:03.384Z,15.187
2018-04-26T12:53:03.367Z,14.875
2018-04-26T12:54:03.673Z,14.875